sensor_id;sensor_type;location;lat;lon;timestamp;P1;durP1;ratioP1;P2;durP2;ratioP2
9536;SDS011;4807;48.024;11.726;2022-11-20T00:01:23;0.70;;;0.70;;
9536;SDS011;4807;48.024;11.726;2022-11-20T00:04:33;2.90;;;1.10;;
9536;SDS011;4807;48.024;11.726;2022-11-20T00:07:42;1.40;;;0.90;;
9536;SDS011;4807;48.024;11.726;2022-11-20T00:10:51;1.33;;;0.83;;
9536;SDS011;4807;48.024;11.726;2022-11-20T00:13:59;3.07;;;1.20;;
9536;SDS011;4807;48.024;11.726;2022-11-20T00:17:09;2.77;;;1.10;;
9536;SDS011;4807;48.024;11.726;2022-11-20T00:20:17;1.23;;;1.00;;
9536;SDS011;4807;48.024;11.726;2022-11-20T00:23:27;1.20;;;0.70;;
9536;SDS011;4807;48.024;11.726;2022-11-20T00:26:35;3.50;;;1.20;;
9536;SDS011;4807;48.024;11.726;2022-11-20T00:29:44;3.03;;;1.13;;
9536;SDS011;4807;48.024;11.726;2022-11-20T00:32:52;1.07;;;0.77;;
9536;SDS011;4807;48.024;11.726;2022-11-20T00:36:04;0.87;;;0.60;;
9536;SDS011;4807;48.024;11.726;2022-11-20T00:39:16;0.80;;;0.53;;
9536;SDS011;4807;48.024;11.726;2022-11-20T00:42:25;1.30;;;0.90;;
9536;SDS011;4807;48.024;11.726;2022-11-20T00:45:33;1.03;;;0.70;;
9536;SDS011;4807;48.024;11.726;2022-11-20T00:48:42;1.37;;;0.80;;
9536;SDS011;4807;48.024;11.726;2022-11-20T00:51:50;1.37;;;0.97;;
9536;SDS011;4807;48.024;11.726;2022-11-20T00:55:00;2.00;;;0.90;;
9536;SDS011;4807;48.024;11.726;2022-11-20T00:58:08;1.50;;;0.80;;
9536;SDS011;4807;48.024;11.726;2022-11-20T01:01:20;2.23;;;1.40;;
9536;SDS011;4807;48.024;11.726;2022-11-20T01:04:31;1.70;;;0.87;;
9536;SDS011;4807;48.024;11.726;2022-11-20T01:07:39;2.17;;;0.97;;
9536;SDS011;4807;48.024;11.726;2022-11-20T01:10:49;1.20;;;0.90;;
9536;SDS011;4807;48.024;11.726;2022-11-20T01:13:58;2.13;;;1.00;;
9536;SDS011;4807;48.024;11.726;2022-11-20T01:17:08;1.53;;;1.10;;
9536;SDS011;4807;48.024;11.726;2022-11-20T01:20:16;3.20;;;1.10;;
9536;SDS011;4807;48.024;11.726;2022-11-20T01:23:24;2.10;;;1.13;;
9536;SDS011;4807;48.024;11.726;2022-11-20T01:26:35;2.00;;;1.00;;
9536;SDS011;4807;48.024;11.726;2022-11-20T01:29:45;2.27;;;1.00;;
9536;SDS011;4807;48.024;11.726;2022-11-20T01:32:54;2.53;;;1.00;;
9536;SDS011;4807;48.024;11.726;2022-11-20T01:36:04;0.93;;;0.80;;
9536;SDS011;4807;48.024;11.726;2022-11-20T01:39:15;2.43;;;1.40;;
9536;SDS011;4807;48.024;11.726;2022-11-20T01:42:28;1.37;;;1.10;;
9536;SDS011;4807;48.024;11.726;2022-11-20T01:45:59;1.87;;;1.40;;
9536;SDS011;4807;48.024;11.726;2022-11-20T01:49:14;1.47;;;0.97;;
9536;SDS011;4807;48.024;11.726;2022-11-20T01:52:29;3.13;;;1.23;;
9536;SDS011;4807;48.024;11.726;2022-11-20T01:55:44;1.57;;;1.10;;
9536;SDS011;4807;48.024;11.726;2022-11-20T01:59:01;1.53;;;1.17;;
9536;SDS011;4807;48.024;11.726;2022-11-20T02:02:12;2.07;;;1.10;;
9536;SDS011;4807;48.024;11.726;2022-11-20T02:05:22;1.53;;;1.00;;
9536;SDS011;4807;48.024;11.726;2022-11-20T02:08:40;2.53;;;1.40;;
9536;SDS011;4807;48.024;11.726;2022-11-20T02:11:48;2.67;;;1.30;;
9536;SDS011;4807;48.024;11.726;2022-11-20T02:14:58;2.90;;;1.20;;
9536;SDS011;4807;48.024;11.726;2022-11-20T02:18:06;2.47;;;1.20;;
9536;SDS011;4807;48.024;11.726;2022-11-20T02:21:19;3.63;;;1.10;;
9536;SDS011;4807;48.024;11.726;2022-11-20T02:24:44;1.70;;;0.97;;
9536;SDS011;4807;48.024;11.726;2022-11-20T02:27:55;1.50;;;1.13;;
9536;SDS011;4807;48.024;11.726;2022-11-20T02:31:04;1.43;;;1.00;;
9536;SDS011;4807;48.024;11.726;2022-11-20T02:34:12;1.53;;;1.20;;
9536;SDS011;4807;48.024;11.726;2022-11-20T02:42:34;1.17;;;1.07;;
9536;SDS011;4807;48.024;11.726;2022-11-20T02:45:43;1.27;;;1.17;;
9536;SDS011;4807;48.024;11.726;2022-11-20T02:48:51;1.50;;;1.17;;
9536;SDS011;4807;48.024;11.726;2022-11-20T02:52:00;1.70;;;1.40;;
9536;SDS011;4807;48.024;11.726;2022-11-20T02:55:08;3.20;;;0.90;;
9536;SDS011;4807;48.024;11.726;2022-11-20T02:58:18;1.97;;;1.40;;
9536;SDS011;4807;48.024;11.726;2022-11-20T03:01:27;1.23;;;1.13;;
9536;SDS011;4807;48.024;11.726;2022-11-20T03:04:35;1.47;;;1.20;;
9536;SDS011;4807;48.024;11.726;2022-11-20T03:07:43;1.40;;;1.30;;
9536;SDS011;4807;48.024;11.726;2022-11-20T03:10:52;1.20;;;1.10;;
9536;SDS011;4807;48.024;11.726;2022-11-20T03:14:02;1.20;;;1.10;;
9536;SDS011;4807;48.024;11.726;2022-11-20T03:17:11;1.43;;;1.30;;
9536;SDS011;4807;48.024;11.726;2022-11-20T03:20:19;2.73;;;0.90;;
9536;SDS011;4807;48.024;11.726;2022-11-20T03:23:28;3.80;;;1.27;;
9536;SDS011;4807;48.024;11.726;2022-11-20T03:26:38;2.17;;;0.90;;
9536;SDS011;4807;48.024;11.726;2022-11-20T03:29:49;2.03;;;0.90;;
9536;SDS011;4807;48.024;11.726;2022-11-20T03:32:57;0.97;;;0.97;;
9536;SDS011;4807;48.024;11.726;2022-11-20T03:36:06;1.57;;;0.90;;
9536;SDS011;4807;48.024;11.726;2022-11-20T03:39:18;2.27;;;1.10;;
9536;SDS011;4807;48.024;11.726;2022-11-20T03:42:27;1.63;;;1.10;;
9536;SDS011;4807;48.024;11.726;2022-11-20T03:45:55;3.07;;;1.17;;
9536;SDS011;4807;48.024;11.726;2022-11-20T03:49:03;1.30;;;1.20;;
9536;SDS011;4807;48.024;11.726;2022-11-20T03:52:12;1.10;;;1.00;;
9536;SDS011;4807;48.024;11.726;2022-11-20T03:55:20;1.77;;;1.40;;
9536;SDS011;4807;48.024;11.726;2022-11-20T03:58:28;1.40;;;1.30;;
9536;SDS011;4807;48.024;11.726;2022-11-20T04:01:38;1.40;;;1.30;;
9536;SDS011;4807;48.024;11.726;2022-11-20T04:04:53;1.23;;;1.13;;
9536;SDS011;4807;48.024;11.726;2022-11-20T04:08:01;1.53;;;1.10;;
9536;SDS011;4807;48.024;11.726;2022-11-20T04:11:11;1.80;;;1.23;;
9536;SDS011;4807;48.024;11.726;2022-11-20T04:14:22;1.40;;;1.30;;
9536;SDS011;4807;48.024;11.726;2022-11-20T04:17:32;2.10;;;1.23;;
9536;SDS011;4807;48.024;11.726;2022-11-20T04:20:40;3.10;;;1.33;;
9536;SDS011;4807;48.024;11.726;2022-11-20T04:23:48;1.20;;;1.10;;
9536;SDS011;4807;48.024;11.726;2022-11-20T04:26:57;2.23;;;1.17;;
9536;SDS011;4807;48.024;11.726;2022-11-20T04:30:06;1.67;;;1.30;;
9536;SDS011;4807;48.024;11.726;2022-11-20T04:33:17;1.10;;;1.00;;
9536;SDS011;4807;48.024;11.726;2022-11-20T04:36:26;2.07;;;1.20;;
9536;SDS011;4807;48.024;11.726;2022-11-20T04:39:36;1.40;;;1.17;;
9536;SDS011;4807;48.024;11.726;2022-11-20T04:42:44;1.13;;;0.90;;
9536;SDS011;4807;48.024;11.726;2022-11-20T04:45:53;1.43;;;1.30;;
9536;SDS011;4807;48.024;11.726;2022-11-20T04:49:03;2.87;;;1.43;;
9536;SDS011;4807;48.024;11.726;2022-11-20T04:52:12;1.10;;;1.00;;
9536;SDS011;4807;48.024;11.726;2022-11-20T04:55:21;1.37;;;1.27;;
9536;SDS011;4807;48.024;11.726;2022-11-20T04:58:29;1.20;;;1.10;;
9536;SDS011;4807;48.024;11.726;2022-11-20T05:01:38;2.13;;;1.37;;
9536;SDS011;4807;48.024;11.726;2022-11-20T05:04:48;1.33;;;1.13;;
9536;SDS011;4807;48.024;11.726;2022-11-20T05:07:56;1.70;;;1.60;;
9536;SDS011;4807;48.024;11.726;2022-11-20T05:11:06;2.07;;;1.50;;
9536;SDS011;4807;48.024;11.726;2022-11-20T05:14:15;2.07;;;1.37;;
9536;SDS011;4807;48.024;11.726;2022-11-20T05:17:24;1.87;;;1.27;;
9536;SDS011;4807;48.024;11.726;2022-11-20T05:20:33;1.40;;;1.30;;
9536;SDS011;4807;48.024;11.726;2022-11-20T05:23:42;2.07;;;1.40;;
9536;SDS011;4807;48.024;11.726;2022-11-20T05:26:52;1.37;;;1.27;;
9536;SDS011;4807;48.024;11.726;2022-11-20T05:30:00;1.27;;;1.13;;
9536;SDS011;4807;48.024;11.726;2022-11-20T05:33:09;1.20;;;1.10;;
9536;SDS011;4807;48.024;11.726;2022-11-20T05:36:19;1.30;;;1.20;;
9536;SDS011;4807;48.024;11.726;2022-11-20T05:39:28;1.53;;;1.43;;
9536;SDS011;4807;48.024;11.726;2022-11-20T05:42:36;2.83;;;1.70;;
9536;SDS011;4807;48.024;11.726;2022-11-20T05:45:51;2.07;;;1.80;;
9536;SDS011;4807;48.024;11.726;2022-11-20T05:49:00;2.70;;;2.50;;
9536;SDS011;4807;48.024;11.726;2022-11-20T05:52:10;2.43;;;2.10;;
9536;SDS011;4807;48.024;11.726;2022-11-20T05:55:19;2.40;;;2.17;;
9536;SDS011;4807;48.024;11.726;2022-11-20T05:58:27;2.00;;;1.90;;
9536;SDS011;4807;48.024;11.726;2022-11-20T06:01:36;2.67;;;2.27;;
9536;SDS011;4807;48.024;11.726;2022-11-20T06:04:44;2.60;;;2.40;;
9536;SDS011;4807;48.024;11.726;2022-11-20T06:07:54;5.53;;;2.83;;
9536;SDS011;4807;48.024;11.726;2022-11-20T06:11:03;3.67;;;2.60;;
9536;SDS011;4807;48.024;11.726;2022-11-20T06:14:13;2.50;;;2.30;;
9536;SDS011;4807;48.024;11.726;2022-11-20T06:17:21;3.67;;;2.70;;
9536;SDS011;4807;48.024;11.726;2022-11-20T06:20:30;2.50;;;2.30;;
9536;SDS011;4807;48.024;11.726;2022-11-20T06:23:46;2.40;;;2.20;;
9536;SDS011;4807;48.024;11.726;2022-11-20T06:26:55;2.57;;;2.20;;
9536;SDS011;4807;48.024;11.726;2022-11-20T06:30:04;2.60;;;2.27;;
9536;SDS011;4807;48.024;11.726;2022-11-20T06:33:13;2.60;;;2.10;;
9536;SDS011;4807;48.024;11.726;2022-11-20T06:36:22;2.53;;;2.33;;
9536;SDS011;4807;48.024;11.726;2022-11-20T06:39:32;4.70;;;2.00;;
9536;SDS011;4807;48.024;11.726;2022-11-20T06:42:40;2.50;;;1.80;;
9536;SDS011;4807;48.024;11.726;2022-11-20T06:45:51;2.27;;;2.07;;
9536;SDS011;4807;48.024;11.726;2022-11-20T06:49:00;2.60;;;2.23;;
9536;SDS011;4807;48.024;11.726;2022-11-20T06:52:08;2.97;;;2.10;;
9536;SDS011;4807;48.024;11.726;2022-11-20T06:55:20;4.07;;;1.97;;
9536;SDS011;4807;48.024;11.726;2022-11-20T06:58:29;1.87;;;1.73;;
9536;SDS011;4807;48.024;11.726;2022-11-20T07:01:40;1.93;;;1.73;;
9536;SDS011;4807;48.024;11.726;2022-11-20T07:04:48;2.93;;;2.30;;
9536;SDS011;4807;48.024;11.726;2022-11-20T07:07:56;2.97;;;1.97;;
9536;SDS011;4807;48.024;11.726;2022-11-20T07:11:06;2.53;;;2.00;;
9536;SDS011;4807;48.024;11.726;2022-11-20T07:14:15;6.90;;;3.90;;
9536;SDS011;4807;48.024;11.726;2022-11-20T07:17:24;4.87;;;3.73;;
9536;SDS011;4807;48.024;11.726;2022-11-20T07:20:32;5.47;;;3.83;;
9536;SDS011;4807;48.024;11.726;2022-11-20T07:23:40;3.20;;;2.90;;
9536;SDS011;4807;48.024;11.726;2022-11-20T07:26:50;3.60;;;2.60;;
9536;SDS011;4807;48.024;11.726;2022-11-20T07:29:58;3.30;;;2.30;;
9536;SDS011;4807;48.024;11.726;2022-11-20T07:33:06;3.67;;;2.13;;
9536;SDS011;4807;48.024;11.726;2022-11-20T07:36:15;3.40;;;2.43;;
9536;SDS011;4807;48.024;11.726;2022-11-20T07:39:23;4.60;;;2.23;;
9536;SDS011;4807;48.024;11.726;2022-11-20T07:42:33;1.83;;;1.67;;
9536;SDS011;4807;48.024;11.726;2022-11-20T07:45:41;3.67;;;2.40;;
9536;SDS011;4807;48.024;11.726;2022-11-20T07:48:49;1.57;;;1.47;;
9536;SDS011;4807;48.024;11.726;2022-11-20T07:51:58;3.63;;;2.13;;
9536;SDS011;4807;48.024;11.726;2022-11-20T07:55:10;1.23;;;1.07;;
9536;SDS011;4807;48.024;11.726;2022-11-20T07:58:21;1.53;;;1.43;;
9536;SDS011;4807;48.024;11.726;2022-11-20T08:01:29;2.03;;;1.57;;
9536;SDS011;4807;48.024;11.726;2022-11-20T08:04:37;3.87;;;1.60;;
9536;SDS011;4807;48.024;11.726;2022-11-20T08:07:46;2.10;;;1.40;;
9536;SDS011;4807;48.024;11.726;2022-11-20T08:10:56;10.97;;;5.43;;
9536;SDS011;4807;48.024;11.726;2022-11-20T08:14:28;3.43;;;3.13;;
9536;SDS011;4807;48.024;11.726;2022-11-20T08:17:35;2.57;;;1.87;;
9536;SDS011;4807;48.024;11.726;2022-11-20T08:20:44;1.67;;;1.50;;
9536;SDS011;4807;48.024;11.726;2022-11-20T08:23:53;1.50;;;1.40;;
9536;SDS011;4807;48.024;11.726;2022-11-20T08:27:01;2.63;;;1.80;;
9536;SDS011;4807;48.024;11.726;2022-11-20T08:30:13;3.23;;;1.70;;
9536;SDS011;4807;48.024;11.726;2022-11-20T08:33:21;5.10;;;3.73;;
9536;SDS011;4807;48.024;11.726;2022-11-20T08:36:32;4.87;;;4.00;;
9536;SDS011;4807;48.024;11.726;2022-11-20T08:39:41;9.33;;;5.60;;
9536;SDS011;4807;48.024;11.726;2022-11-20T08:42:49;9.53;;;6.27;;
9536;SDS011;4807;48.024;11.726;2022-11-20T08:45:59;12.40;;;6.73;;
9536;SDS011;4807;48.024;11.726;2022-11-20T08:49:08;13.70;;;7.07;;
9536;SDS011;4807;48.024;11.726;2022-11-20T08:52:19;4.17;;;3.23;;
9536;SDS011;4807;48.024;11.726;2022-11-20T08:55:27;2.20;;;1.93;;
9536;SDS011;4807;48.024;11.726;2022-11-20T08:58:35;2.07;;;1.50;;
9536;SDS011;4807;48.024;11.726;2022-11-20T09:02:05;3.23;;;2.87;;
9536;SDS011;4807;48.024;11.726;2022-11-20T09:05:15;1.60;;;1.50;;
9536;SDS011;4807;48.024;11.726;2022-11-20T09:08:23;2.73;;;1.37;;
9536;SDS011;4807;48.024;11.726;2022-11-20T09:11:31;4.83;;;3.10;;
9536;SDS011;4807;48.024;11.726;2022-11-20T09:14:40;2.27;;;2.00;;
9536;SDS011;4807;48.024;11.726;2022-11-20T09:17:54;1.00;;;1.00;;
9536;SDS011;4807;48.024;11.726;2022-11-20T09:21:06;1.30;;;1.20;;
9536;SDS011;4807;48.024;11.726;2022-11-20T09:24:20;1.63;;;1.10;;
9536;SDS011;4807;48.024;11.726;2022-11-20T09:27:28;2.77;;;1.40;;
9536;SDS011;4807;48.024;11.726;2022-11-20T09:30:36;2.07;;;1.40;;
9536;SDS011;4807;48.024;11.726;2022-11-20T09:33:46;1.43;;;0.97;;
9536;SDS011;4807;48.024;11.726;2022-11-20T09:36:54;3.20;;;1.17;;
9536;SDS011;4807;48.024;11.726;2022-11-20T09:40:09;0.90;;;0.80;;
9536;SDS011;4807;48.024;11.726;2022-11-20T09:43:30;0.97;;;0.70;;
9536;SDS011;4807;48.024;11.726;2022-11-20T09:46:55;1.13;;;0.80;;
9536;SDS011;4807;48.024;11.726;2022-11-20T09:50:20;1.70;;;1.17;;
9536;SDS011;4807;48.024;11.726;2022-11-20T09:53:41;1.17;;;1.03;;
9536;SDS011;4807;48.024;11.726;2022-11-20T09:57:10;1.03;;;0.93;;
9536;SDS011;4807;48.024;11.726;2022-11-20T10:00:24;1.27;;;0.83;;
9536;SDS011;4807;48.024;11.726;2022-11-20T10:03:36;1.17;;;0.90;;
9536;SDS011;4807;48.024;11.726;2022-11-20T10:07:00;0.83;;;0.70;;
9536;SDS011;4807;48.024;11.726;2022-11-20T10:10:39;0.80;;;0.63;;
9536;SDS011;4807;48.024;11.726;2022-11-20T10:13:59;0.90;;;0.70;;
9536;SDS011;4807;48.024;11.726;2022-11-20T10:17:27;0.73;;;0.70;;
9536;SDS011;4807;48.024;11.726;2022-11-20T10:21:03;1.20;;;1.10;;
9536;SDS011;4807;48.024;11.726;2022-11-20T10:24:33;1.00;;;0.60;;
9536;SDS011;4807;48.024;11.726;2022-11-20T10:27:56;3.03;;;0.80;;
9536;SDS011;4807;48.024;11.726;2022-11-20T10:31:26;1.00;;;0.60;;
9536;SDS011;4807;48.024;11.726;2022-11-20T10:34:44;0.40;;;0.40;;
9536;SDS011;4807;48.024;11.726;2022-11-20T10:38:00;1.43;;;0.60;;
9536;SDS011;4807;48.024;11.726;2022-11-20T10:41:17;0.67;;;0.50;;
9536;SDS011;4807;48.024;11.726;2022-11-20T10:44:38;2.63;;;0.70;;
9536;SDS011;4807;48.024;11.726;2022-11-20T10:48:14;1.00;;;1.00;;
9536;SDS011;4807;48.024;11.726;2022-11-20T10:51:31;0.73;;;0.43;;
9536;SDS011;4807;48.024;11.726;2022-11-20T10:54:49;0.50;;;0.50;;
9536;SDS011;4807;48.024;11.726;2022-11-20T10:58:13;1.00;;;0.53;;
9536;SDS011;4807;48.024;11.726;2022-11-20T11:01:39;0.57;;;0.33;;
9536;SDS011;4807;48.024;11.726;2022-11-20T11:04:51;0.50;;;0.50;;
9536;SDS011;4807;48.024;11.726;2022-11-20T11:08:01;0.30;;;0.30;;
9536;SDS011;4807;48.024;11.726;2022-11-20T11:11:21;2.00;;;0.40;;
9536;SDS011;4807;48.024;11.726;2022-11-20T11:14:43;0.40;;;0.40;;
9536;SDS011;4807;48.024;11.726;2022-11-20T11:17:55;1.33;;;0.80;;
9536;SDS011;4807;48.024;11.726;2022-11-20T11:21:04;0.80;;;0.50;;
9536;SDS011;4807;48.024;11.726;2022-11-20T11:24:18;2.50;;;0.90;;
9536;SDS011;4807;48.024;11.726;2022-11-20T11:27:47;0.83;;;0.50;;
9536;SDS011;4807;48.024;11.726;2022-11-20T11:30:59;0.80;;;0.40;;
9536;SDS011;4807;48.024;11.726;2022-11-20T11:34:10;0.40;;;0.30;;
9536;SDS011;4807;48.024;11.726;2022-11-20T11:37:21;0.50;;;0.50;;
9536;SDS011;4807;48.024;11.726;2022-11-20T11:40:31;1.43;;;0.40;;
9536;SDS011;4807;48.024;11.726;2022-11-20T11:43:48;0.60;;;0.50;;
9536;SDS011;4807;48.024;11.726;2022-11-20T11:47:21;0.50;;;0.50;;
9536;SDS011;4807;48.024;11.726;2022-11-20T11:50:33;1.10;;;0.60;;
9536;SDS011;4807;48.024;11.726;2022-11-20T11:53:42;1.03;;;0.70;;
9536;SDS011;4807;48.024;11.726;2022-11-20T11:56:51;2.23;;;0.70;;
9536;SDS011;4807;48.024;11.726;2022-11-20T12:00:02;1.07;;;0.90;;
9536;SDS011;4807;48.024;11.726;2022-11-20T12:03:23;1.47;;;0.73;;
9536;SDS011;4807;48.024;11.726;2022-11-20T12:06:39;1.63;;;1.23;;
9536;SDS011;4807;48.024;11.726;2022-11-20T12:09:54;0.57;;;0.40;;
9536;SDS011;4807;48.024;11.726;2022-11-20T12:13:11;1.33;;;0.67;;
9536;SDS011;4807;48.024;11.726;2022-11-20T12:16:33;1.30;;;1.07;;
9536;SDS011;4807;48.024;11.726;2022-11-20T12:19:47;0.57;;;0.57;;
9536;SDS011;4807;48.024;11.726;2022-11-20T12:22:56;1.17;;;0.60;;
9536;SDS011;4807;48.024;11.726;2022-11-20T12:26:19;1.63;;;1.03;;
9536;SDS011;4807;48.024;11.726;2022-11-20T12:29:43;1.07;;;0.70;;
9536;SDS011;4807;48.024;11.726;2022-11-20T12:33:12;0.83;;;0.80;;
9536;SDS011;4807;48.024;11.726;2022-11-20T12:36:45;1.20;;;1.10;;
9536;SDS011;4807;48.024;11.726;2022-11-20T12:40:11;1.00;;;0.60;;
9536;SDS011;4807;48.024;11.726;2022-11-20T12:43:37;0.93;;;0.73;;
9536;SDS011;4807;48.024;11.726;2022-11-20T12:47:12;1.43;;;0.40;;
9536;SDS011;4807;48.024;11.726;2022-11-20T12:50:37;0.80;;;0.80;;
9536;SDS011;4807;48.024;11.726;2022-11-20T12:58:20;2.87;;;1.33;;
9536;SDS011;4807;48.024;11.726;2022-11-20T13:01:40;0.60;;;0.60;;
9536;SDS011;4807;48.024;11.726;2022-11-20T13:05:05;0.60;;;0.60;;
9536;SDS011;4807;48.024;11.726;2022-11-20T13:08:29;5.70;;;0.80;;
9536;SDS011;4807;48.024;11.726;2022-11-20T13:11:44;0.60;;;0.60;;
9536;SDS011;4807;48.024;11.726;2022-11-20T13:15:05;0.80;;;0.80;;
9536;SDS011;4807;48.024;11.726;2022-11-20T13:18:33;0.90;;;0.87;;
9536;SDS011;4807;48.024;11.726;2022-11-20T13:21:49;0.50;;;0.50;;
9536;SDS011;4807;48.024;11.726;2022-11-20T13:24:58;1.13;;;0.40;;
9536;SDS011;4807;48.024;11.726;2022-11-20T13:31:36;1.03;;;0.60;;
9536;SDS011;4807;48.024;11.726;2022-11-20T13:34:51;0.70;;;0.60;;
9536;SDS011;4807;48.024;11.726;2022-11-20T13:38:03;0.60;;;0.60;;
9536;SDS011;4807;48.024;11.726;2022-11-20T13:41:22;0.60;;;0.60;;
9536;SDS011;4807;48.024;11.726;2022-11-20T13:44:39;2.00;;;1.80;;
9536;SDS011;4807;48.024;11.726;2022-11-20T13:47:52;0.60;;;0.60;;
9536;SDS011;4807;48.024;11.726;2022-11-20T13:51:04;0.63;;;0.63;;
9536;SDS011;4807;48.024;11.726;2022-11-20T13:54:27;2.87;;;0.70;;
9536;SDS011;4807;48.024;11.726;2022-11-20T13:58:07;0.97;;;0.90;;
9536;SDS011;4807;48.024;11.726;2022-11-20T14:01:39;1.37;;;0.70;;
9536;SDS011;4807;48.024;11.726;2022-11-20T14:04:54;5.37;;;2.83;;
9536;SDS011;4807;48.024;11.726;2022-11-20T14:08:11;13.80;;;6.23;;
9536;SDS011;4807;48.024;11.726;2022-11-20T14:11:30;7.77;;;3.60;;
9536;SDS011;4807;48.024;11.726;2022-11-20T14:14:46;3.47;;;2.30;;
9536;SDS011;4807;48.024;11.726;2022-11-20T14:17:59;25.83;;;11.47;;
9536;SDS011;4807;48.024;11.726;2022-11-20T14:21:23;18.87;;;9.60;;
9536;SDS011;4807;48.024;11.726;2022-11-20T14:24:34;5.30;;;3.50;;
9536;SDS011;4807;48.024;11.726;2022-11-20T14:27:43;2.40;;;2.20;;
9536;SDS011;4807;48.024;11.726;2022-11-20T14:30:59;1.50;;;1.10;;
9536;SDS011;4807;48.024;11.726;2022-11-20T14:34:12;13.90;;;11.03;;
9536;SDS011;4807;48.024;11.726;2022-11-20T14:37:27;1.30;;;1.23;;
9536;SDS011;4807;48.024;11.726;2022-11-20T14:40:41;1.90;;;1.80;;
9536;SDS011;4807;48.024;11.726;2022-11-20T14:43:51;0.93;;;0.90;;
9536;SDS011;4807;48.024;11.726;2022-11-20T14:47:04;0.80;;;0.80;;
9536;SDS011;4807;48.024;11.726;2022-11-20T14:50:16;0.80;;;0.80;;
9536;SDS011;4807;48.024;11.726;2022-11-20T14:53:29;1.10;;;0.70;;
9536;SDS011;4807;48.024;11.726;2022-11-20T14:56:37;1.83;;;1.20;;
9536;SDS011;4807;48.024;11.726;2022-11-20T14:59:46;1.23;;;0.80;;
9536;SDS011;4807;48.024;11.726;2022-11-20T15:02:54;1.33;;;0.43;;
9536;SDS011;4807;48.024;11.726;2022-11-20T15:06:06;0.33;;;0.30;;
9536;SDS011;4807;48.024;11.726;2022-11-20T15:09:18;0.40;;;0.40;;
9536;SDS011;4807;48.024;11.726;2022-11-20T15:12:27;0.30;;;0.30;;
9536;SDS011;4807;48.024;11.726;2022-11-20T15:15:39;0.33;;;0.30;;
9536;SDS011;4807;48.024;11.726;2022-11-20T15:18:54;0.40;;;0.30;;
9536;SDS011;4807;48.024;11.726;2022-11-20T15:22:08;0.90;;;0.23;;
9536;SDS011;4807;48.024;11.726;2022-11-20T15:25:33;0.40;;;0.40;;
9536;SDS011;4807;48.024;11.726;2022-11-20T15:28:42;0.60;;;0.50;;
9536;SDS011;4807;48.024;11.726;2022-11-20T15:31:53;1.00;;;0.90;;
9536;SDS011;4807;48.024;11.726;2022-11-20T15:35:03;4.27;;;1.60;;
9536;SDS011;4807;48.024;11.726;2022-11-20T15:38:13;4.33;;;2.23;;
9536;SDS011;4807;48.024;11.726;2022-11-20T15:41:22;5.77;;;3.13;;
9536;SDS011;4807;48.024;11.726;2022-11-20T15:44:30;5.60;;;2.60;;
9536;SDS011;4807;48.024;11.726;2022-11-20T15:47:38;0.60;;;0.50;;
9536;SDS011;4807;48.024;11.726;2022-11-20T15:50:49;0.40;;;0.40;;
9536;SDS011;4807;48.024;11.726;2022-11-20T15:54:10;2.93;;;1.20;;
9536;SDS011;4807;48.024;11.726;2022-11-20T15:57:20;0.73;;;0.60;;
9536;SDS011;4807;48.024;11.726;2022-11-20T16:00:29;1.43;;;1.13;;
9536;SDS011;4807;48.024;11.726;2022-11-20T16:03:37;1.80;;;1.47;;
9536;SDS011;4807;48.024;11.726;2022-11-20T16:06:47;3.20;;;1.83;;
9536;SDS011;4807;48.024;11.726;2022-11-20T16:09:57;0.50;;;0.50;;
9536;SDS011;4807;48.024;11.726;2022-11-20T16:13:11;1.97;;;0.73;;
9536;SDS011;4807;48.024;11.726;2022-11-20T16:16:39;1.83;;;0.80;;
9536;SDS011;4807;48.024;11.726;2022-11-20T16:19:49;0.80;;;0.80;;
9536;SDS011;4807;48.024;11.726;2022-11-20T16:22:58;1.93;;;1.10;;
9536;SDS011;4807;48.024;11.726;2022-11-20T16:26:11;0.50;;;0.50;;
9536;SDS011;4807;48.024;11.726;2022-11-20T16:29:22;1.20;;;1.10;;
9536;SDS011;4807;48.024;11.726;2022-11-20T16:32:30;0.63;;;0.63;;
9536;SDS011;4807;48.024;11.726;2022-11-20T16:35:40;1.17;;;0.70;;
9536;SDS011;4807;48.024;11.726;2022-11-20T16:38:51;1.77;;;1.00;;
9536;SDS011;4807;48.024;11.726;2022-11-20T16:42:04;1.23;;;1.17;;
9536;SDS011;4807;48.024;11.726;2022-11-20T16:45:14;1.00;;;0.90;;
9536;SDS011;4807;48.024;11.726;2022-11-20T16:48:31;2.07;;;1.10;;
9536;SDS011;4807;48.024;11.726;2022-11-20T16:51:41;1.93;;;1.20;;
9536;SDS011;4807;48.024;11.726;2022-11-20T16:54:49;2.10;;;1.83;;
9536;SDS011;4807;48.024;11.726;2022-11-20T16:58:01;5.20;;;3.50;;
9536;SDS011;4807;48.024;11.726;2022-11-20T17:01:10;7.03;;;3.83;;
9536;SDS011;4807;48.024;11.726;2022-11-20T17:04:20;3.83;;;2.23;;
9536;SDS011;4807;48.024;11.726;2022-11-20T17:07:31;8.47;;;4.33;;
9536;SDS011;4807;48.024;11.726;2022-11-20T17:10:40;6.03;;;2.80;;
9536;SDS011;4807;48.024;11.726;2022-11-20T17:13:50;2.70;;;1.70;;
9536;SDS011;4807;48.024;11.726;2022-11-20T17:17:01;2.10;;;1.20;;
9536;SDS011;4807;48.024;11.726;2022-11-20T17:20:10;3.17;;;1.63;;
9536;SDS011;4807;48.024;11.726;2022-11-20T17:23:20;3.70;;;2.17;;
9536;SDS011;4807;48.024;11.726;2022-11-20T17:26:29;1.73;;;1.50;;
9536;SDS011;4807;48.024;11.726;2022-11-20T17:29:40;2.17;;;1.60;;
9536;SDS011;4807;48.024;11.726;2022-11-20T17:32:49;1.50;;;1.03;;
9536;SDS011;4807;48.024;11.726;2022-11-20T17:35:58;1.60;;;1.50;;
9536;SDS011;4807;48.024;11.726;2022-11-20T17:39:08;3.27;;;2.10;;
9536;SDS011;4807;48.024;11.726;2022-11-20T17:42:17;1.90;;;1.80;;
9536;SDS011;4807;48.024;11.726;2022-11-20T17:45:36;2.50;;;2.30;;
9536;SDS011;4807;48.024;11.726;2022-11-20T17:48:46;2.40;;;1.87;;
9536;SDS011;4807;48.024;11.726;2022-11-20T17:51:56;2.17;;;1.63;;
9536;SDS011;4807;48.024;11.726;2022-11-20T17:55:04;2.20;;;1.30;;
9536;SDS011;4807;48.024;11.726;2022-11-20T17:58:14;2.30;;;1.90;;
9536;SDS011;4807;48.024;11.726;2022-11-20T18:01:23;2.77;;;2.00;;
9536;SDS011;4807;48.024;11.726;2022-11-20T18:04:31;2.63;;;2.17;;
9536;SDS011;4807;48.024;11.726;2022-11-20T18:07:39;2.63;;;2.00;;
9536;SDS011;4807;48.024;11.726;2022-11-20T18:10:48;1.97;;;1.70;;
9536;SDS011;4807;48.024;11.726;2022-11-20T18:13:57;2.33;;;1.47;;
9536;SDS011;4807;48.024;11.726;2022-11-20T18:17:26;2.40;;;1.67;;
9536;SDS011;4807;48.024;11.726;2022-11-20T18:20:34;2.80;;;1.90;;
9536;SDS011;4807;48.024;11.726;2022-11-20T18:23:45;2.57;;;1.80;;
9536;SDS011;4807;48.024;11.726;2022-11-20T18:26:54;1.87;;;1.53;;
9536;SDS011;4807;48.024;11.726;2022-11-20T18:30:04;3.37;;;2.70;;
9536;SDS011;4807;48.024;11.726;2022-11-20T18:33:15;2.67;;;2.40;;
9536;SDS011;4807;48.024;11.726;2022-11-20T18:36:24;1.80;;;1.70;;
9536;SDS011;4807;48.024;11.726;2022-11-20T18:39:35;2.50;;;2.10;;
9536;SDS011;4807;48.024;11.726;2022-11-20T18:42:43;6.00;;;3.17;;
9536;SDS011;4807;48.024;11.726;2022-11-20T18:46:09;2.43;;;2.10;;
9536;SDS011;4807;48.024;11.726;2022-11-20T18:49:19;3.03;;;1.70;;
9536;SDS011;4807;48.024;11.726;2022-11-20T18:52:28;5.97;;;1.70;;
9536;SDS011;4807;48.024;11.726;2022-11-20T18:55:39;2.70;;;2.27;;
9536;SDS011;4807;48.024;11.726;2022-11-20T18:58:48;4.87;;;2.30;;
9536;SDS011;4807;48.024;11.726;2022-11-20T19:01:57;2.90;;;2.07;;
9536;SDS011;4807;48.024;11.726;2022-11-20T19:05:10;4.03;;;2.03;;
9536;SDS011;4807;48.024;11.726;2022-11-20T19:08:22;3.23;;;2.00;;
9536;SDS011;4807;48.024;11.726;2022-11-20T19:11:32;1.73;;;1.40;;
9536;SDS011;4807;48.024;11.726;2022-11-20T19:14:41;2.30;;;1.40;;
9536;SDS011;4807;48.024;11.726;2022-11-20T19:17:50;2.47;;;1.37;;
9536;SDS011;4807;48.024;11.726;2022-11-20T19:21:07;2.70;;;1.20;;
9536;SDS011;4807;48.024;11.726;2022-11-20T19:24:17;1.37;;;1.17;;
9536;SDS011;4807;48.024;11.726;2022-11-20T19:27:25;2.17;;;1.23;;
9536;SDS011;4807;48.024;11.726;2022-11-20T19:30:34;1.60;;;1.33;;
9536;SDS011;4807;48.024;11.726;2022-11-20T19:33:42;1.40;;;1.20;;
9536;SDS011;4807;48.024;11.726;2022-11-20T19:36:53;2.40;;;1.70;;
9536;SDS011;4807;48.024;11.726;2022-11-20T19:40:02;4.33;;;1.87;;
9536;SDS011;4807;48.024;11.726;2022-11-20T19:43:11;1.67;;;1.57;;
9536;SDS011;4807;48.024;11.726;2022-11-20T19:46:20;1.53;;;1.30;;
9536;SDS011;4807;48.024;11.726;2022-11-20T19:49:29;3.50;;;2.57;;